sensor_id;sensor_type;location;lat;lon;timestamp;temperature;humidity
27492;DHT22;14927;51.210;6.838;2024-03-29T00:01:14;13.90;48.00
27492;DHT22;14927;51.210;6.838;2024-03-29T00:03:59;13.90;48.00
27492;DHT22;14927;51.210;6.838;2024-03-29T00:06:43;14.00;48.10
27492;DHT22;14927;51.210;6.838;2024-03-29T00:09:28;13.90;48.10
27492;DHT22;14927;51.210;6.838;2024-03-29T00:12:12;13.80;48.10
27492;DHT22;14927;51.210;6.838;2024-03-29T00:14:57;13.80;48.20
27492;DHT22;14927;51.210;6.838;2024-03-29T00:17:42;13.80;48.20
27492;DHT22;14927;51.210;6.838;2024-03-29T00:20:26;13.80;48.30
27492;DHT22;14927;51.210;6.838;2024-03-29T00:23:13;13.90;48.30
27492;DHT22;14927;51.210;6.838;2024-03-29T00:25:57;13.80;48.30
27492;DHT22;14927;51.210;6.838;2024-03-29T00:28:42;13.80;48.30
27492;DHT22;14927;51.210;6.838;2024-03-29T00:31:27;13.80;48.30
27492;DHT22;14927;51.210;6.838;2024-03-29T00:34:12;13.80;48.30
27492;DHT22;14927;51.210;6.838;2024-03-29T00:36:56;13.80;48.30
27492;DHT22;14927;51.210;6.838;2024-03-29T00:39:41;13.80;48.40
27492;DHT22;14927;51.210;6.838;2024-03-29T00:42:28;13.80;48.40
27492;DHT22;14927;51.210;6.838;2024-03-29T00:45:13;13.80;48.40
27492;DHT22;14927;51.210;6.838;2024-03-29T00:47:58;13.80;48.40
27492;DHT22;14927;51.210;6.838;2024-03-29T00:50:42;13.70;48.40
27492;DHT22;14927;51.210;6.838;2024-03-29T00:53:27;13.70;48.40
27492;DHT22;14927;51.210;6.838;2024-03-29T00:56:11;13.70;48.40
27492;DHT22;14927;51.210;6.838;2024-03-29T00:58:56;13.70;48.50
27492;DHT22;14927;51.210;6.838;2024-03-29T01:01:41;13.70;48.60
27492;DHT22;14927;51.210;6.838;2024-03-29T01:04:25;13.70;48.60
27492;DHT22;14927;51.210;6.838;2024-03-29T01:07:10;13.80;48.70
27492;DHT22;14927;51.210;6.838;2024-03-29T01:09:54;13.70;48.60
27492;DHT22;14927;51.210;6.838;2024-03-29T01:12:39;13.70;48.50
27492;DHT22;14927;51.210;6.838;2024-03-29T01:15:25;13.70;48.50
27492;DHT22;14927;51.210;6.838;2024-03-29T01:18:09;13.80;48.60
27492;DHT22;14927;51.210;6.838;2024-03-29T01:20:54;13.70;48.40
27492;DHT22;14927;51.210;6.838;2024-03-29T01:23:39;13.70;48.40
27492;DHT22;14927;51.210;6.838;2024-03-29T01:26:24;13.70;48.40
27492;DHT22;14927;51.210;6.838;2024-03-29T01:29:09;13.90;48.30
27492;DHT22;14927;51.210;6.838;2024-03-29T01:31:53;13.60;48.20
27492;DHT22;14927;51.210;6.838;2024-03-29T01:34:38;13.70;48.20
27492;DHT22;14927;51.210;6.838;2024-03-29T01:37:22;13.60;48.20
27492;DHT22;14927;51.210;6.838;2024-03-29T01:40:07;13.60;48.30
27492;DHT22;14927;51.210;6.838;2024-03-29T01:42:55;13.60;48.30
27492;DHT22;14927;51.210;6.838;2024-03-29T01:45:41;13.60;48.50
27492;DHT22;14927;51.210;6.838;2024-03-29T01:48:26;13.50;48.40
27492;DHT22;14927;51.210;6.838;2024-03-29T01:51:13;13.60;48.50
27492;DHT22;14927;51.210;6.838;2024-03-29T01:53:58;13.50;48.40
27492;DHT22;14927;51.210;6.838;2024-03-29T01:56:44;13.50;48.40
27492;DHT22;14927;51.210;6.838;2024-03-29T01:59:28;13.50;48.40
27492;DHT22;14927;51.210;6.838;2024-03-29T02:02:13;13.50;48.50
27492;DHT22;14927;51.210;6.838;2024-03-29T02:04:58;13.50;48.50
27492;DHT22;14927;51.210;6.838;2024-03-29T02:07:43;13.50;48.40
27492;DHT22;14927;51.210;6.838;2024-03-29T02:10:31;13.50;48.40
27492;DHT22;14927;51.210;6.838;2024-03-29T02:13:15;13.50;48.40
27492;DHT22;14927;51.210;6.838;2024-03-29T02:16:00;13.60;48.40
27492;DHT22;14927;51.210;6.838;2024-03-29T02:18:45;13.60;48.50
27492;DHT22;14927;51.210;6.838;2024-03-29T02:21:31;13.60;48.40
27492;DHT22;14927;51.210;6.838;2024-03-29T02:24:16;13.60;48.30
27492;DHT22;14927;51.210;6.838;2024-03-29T02:27:02;13.60;48.20
27492;DHT22;14927;51.210;6.838;2024-03-29T02:29:46;13.60;48.20
27492;DHT22;14927;51.210;6.838;2024-03-29T02:32:31;13.60;48.20
27492;DHT22;14927;51.210;6.838;2024-03-29T02:35:15;13.60;48.20
27492;DHT22;14927;51.210;6.838;2024-03-29T02:38:00;13.70;48.20
27492;DHT22;14927;51.210;6.838;2024-03-29T02:40:45;13.60;48.10
27492;DHT22;14927;51.210;6.838;2024-03-29T02:43:30;13.70;48.10
27492;DHT22;14927;51.210;6.838;2024-03-29T02:46:14;13.60;48.10
27492;DHT22;14927;51.210;6.838;2024-03-29T02:48:59;13.70;48.10
27492;DHT22;14927;51.210;6.838;2024-03-29T02:51:43;13.70;48.20
27492;DHT22;14927;51.210;6.838;2024-03-29T02:54:28;13.70;48.30
27492;DHT22;14927;51.210;6.838;2024-03-29T02:57:13;13.70;48.50
27492;DHT22;14927;51.210;6.838;2024-03-29T02:59:58;13.70;48.80
27492;DHT22;14927;51.210;6.838;2024-03-29T03:02:42;13.70;49.10
27492;DHT22;14927;51.210;6.838;2024-03-29T03:05:27;13.80;49.30
27492;DHT22;14927;51.210;6.838;2024-03-29T03:08:12;13.80;49.60
27492;DHT22;14927;51.210;6.838;2024-03-29T03:11:15;13.80;49.90
27492;DHT22;14927;51.210;6.838;2024-03-29T03:13:59;13.90;50.10
27492;DHT22;14927;51.210;6.838;2024-03-29T03:16:44;14.10;50.40
27492;DHT22;14927;51.210;6.838;2024-03-29T03:19:28;13.80;50.50
27492;DHT22;14927;51.210;6.838;2024-03-29T03:22:13;13.80;50.50
27492;DHT22;14927;51.210;6.838;2024-03-29T03:24:58;13.90;50.70
27492;DHT22;14927;51.210;6.838;2024-03-29T03:27:43;13.90;50.70
27492;DHT22;14927;51.210;6.838;2024-03-29T03:30:27;13.90;50.70
27492;DHT22;14927;51.210;6.838;2024-03-29T03:33:12;13.90;50.70
27492;DHT22;14927;51.210;6.838;2024-03-29T03:35:56;13.90;50.80
27492;DHT22;14927;51.210;6.838;2024-03-29T03:38:41;13.90;50.80
27492;DHT22;14927;51.210;6.838;2024-03-29T03:41:26;14.10;50.80
27492;DHT22;14927;51.210;6.838;2024-03-29T03:44:10;13.90;50.50
27492;DHT22;14927;51.210;6.838;2024-03-29T03:46:55;13.90;50.50
27492;DHT22;14927;51.210;6.838;2024-03-29T03:49:39;13.90;50.50
27492;DHT22;14927;51.210;6.838;2024-03-29T03:52:24;14.00;50.50
27492;DHT22;14927;51.210;6.838;2024-03-29T03:55:09;14.00;50.50
27492;DHT22;14927;51.210;6.838;2024-03-29T03:57:54;14.00;50.60
27492;DHT22;14927;51.210;6.838;2024-03-29T04:00:39;14.00;50.70
27492;DHT22;14927;51.210;6.838;2024-03-29T04:03:23;14.00;50.50
27492;DHT22;14927;51.210;6.838;2024-03-29T04:06:08;14.10;50.30
27492;DHT22;14927;51.210;6.838;2024-03-29T04:08:52;14.00;50.20
27492;DHT22;14927;51.210;6.838;2024-03-29T04:11:37;14.00;50.10
27492;DHT22;14927;51.210;6.838;2024-03-29T04:14:22;14.00;50.00
27492;DHT22;14927;51.210;6.838;2024-03-29T04:17:06;14.00;50.00
27492;DHT22;14927;51.210;6.838;2024-03-29T04:19:51;14.00;50.00
27492;DHT22;14927;51.210;6.838;2024-03-29T04:22:35;13.90;49.90
27492;DHT22;14927;51.210;6.838;2024-03-29T04:25:21;14.00;49.80
27492;DHT22;14927;51.210;6.838;2024-03-29T04:28:06;14.00;49.70
27492;DHT22;14927;51.210;6.838;2024-03-29T04:30:55;13.90;49.60
27492;DHT22;14927;51.210;6.838;2024-03-29T04:33:42;14.00;49.50
27492;DHT22;14927;51.210;6.838;2024-03-29T04:36:27;14.00;49.60
27492;DHT22;14927;51.210;6.838;2024-03-29T04:39:11;14.00;49.80
27492;DHT22;14927;51.210;6.838;2024-03-29T04:41:56;14.00;50.10
27492;DHT22;14927;51.210;6.838;2024-03-29T04:44:41;14.00;50.30
27492;DHT22;14927;51.210;6.838;2024-03-29T04:47:26;14.00;50.60
27492;DHT22;14927;51.210;6.838;2024-03-29T04:50:10;13.90;50.80
27492;DHT22;14927;51.210;6.838;2024-03-29T04:52:55;13.90;51.00
27492;DHT22;14927;51.210;6.838;2024-03-29T04:55:39;14.00;51.20
27492;DHT22;14927;51.210;6.838;2024-03-29T04:58:25;14.00;51.40
27492;DHT22;14927;51.210;6.838;2024-03-29T05:01:09;14.00;51.70
27492;DHT22;14927;51.210;6.838;2024-03-29T05:03:54;14.00;51.80
27492;DHT22;14927;51.210;6.838;2024-03-29T05:06:38;14.00;51.90
27492;DHT22;14927;51.210;6.838;2024-03-29T05:09:24;14.00;52.40
27492;DHT22;14927;51.210;6.838;2024-03-29T05:12:09;14.00;52.60
27492;DHT22;14927;51.210;6.838;2024-03-29T05:14:53;14.00;52.70
27492;DHT22;14927;51.210;6.838;2024-03-29T05:17:38;14.00;53.00
27492;DHT22;14927;51.210;6.838;2024-03-29T05:20:24;13.90;53.30
27492;DHT22;14927;51.210;6.838;2024-03-29T05:23:09;13.90;53.60
27492;DHT22;14927;51.210;6.838;2024-03-29T05:25:54;13.90;53.60
27492;DHT22;14927;51.210;6.838;2024-03-29T05:28:38;13.90;53.80
27492;DHT22;14927;51.210;6.838;2024-03-29T05:31:23;13.90;54.00
27492;DHT22;14927;51.210;6.838;2024-03-29T05:34:08;13.90;54.30
27492;DHT22;14927;51.210;6.838;2024-03-29T05:36:53;13.90;54.20
27492;DHT22;14927;51.210;6.838;2024-03-29T05:39:38;13.90;54.80
27492;DHT22;14927;51.210;6.838;2024-03-29T05:42:22;13.80;54.20
27492;DHT22;14927;51.210;6.838;2024-03-29T05:45:23;13.80;54.30
27492;DHT22;14927;51.210;6.838;2024-03-29T05:48:12;13.80;54.90
27492;DHT22;14927;51.210;6.838;2024-03-29T05:50:57;13.80;54.60
27492;DHT22;14927;51.210;6.838;2024-03-29T05:53:41;13.80;54.70
27492;DHT22;14927;51.210;6.838;2024-03-29T05:56:26;13.80;54.70
27492;DHT22;14927;51.210;6.838;2024-03-29T05:59:10;13.90;54.90
27492;DHT22;14927;51.210;6.838;2024-03-29T06:01:56;13.80;55.00
27492;DHT22;14927;51.210;6.838;2024-03-29T06:04:40;13.70;55.00
27492;DHT22;14927;51.210;6.838;2024-03-29T06:07:25;13.80;55.30
27492;DHT22;14927;51.210;6.838;2024-03-29T06:10:12;13.70;55.40
27492;DHT22;14927;51.210;6.838;2024-03-29T06:12:58;13.80;55.60
27492;DHT22;14927;51.210;6.838;2024-03-29T06:15:51;13.70;55.80
27492;DHT22;14927;51.210;6.838;2024-03-29T06:18:54;13.70;56.00
27492;DHT22;14927;51.210;6.838;2024-03-29T06:21:39;13.60;56.00
27492;DHT22;14927;51.210;6.838;2024-03-29T06:24:23;13.80;56.30
27492;DHT22;14927;51.210;6.838;2024-03-29T06:27:08;13.60;56.50
27492;DHT22;14927;51.210;6.838;2024-03-29T06:29:53;13.60;56.70
27492;DHT22;14927;51.210;6.838;2024-03-29T06:32:37;13.60;56.80
27492;DHT22;14927;51.210;6.838;2024-03-29T06:35:22;13.60;57.00
27492;DHT22;14927;51.210;6.838;2024-03-29T06:38:06;13.60;57.90
27492;DHT22;14927;51.210;6.838;2024-03-29T06:40:51;13.60;57.50
27492;DHT22;14927;51.210;6.838;2024-03-29T06:43:35;13.60;57.70
27492;DHT22;14927;51.210;6.838;2024-03-29T06:46:20;13.60;57.90
27492;DHT22;14927;51.210;6.838;2024-03-29T06:49:05;13.60;58.00
27492;DHT22;14927;51.210;6.838;2024-03-29T06:51:50;13.60;58.00
27492;DHT22;14927;51.210;6.838;2024-03-29T06:54:34;13.60;58.20
27492;DHT22;14927;51.210;6.838;2024-03-29T06:57:19;13.60;58.30
27492;DHT22;14927;51.210;6.838;2024-03-29T07:00:08;13.60;58.40
27492;DHT22;14927;51.210;6.838;2024-03-29T07:02:53;13.60;58.40
27492;DHT22;14927;51.210;6.838;2024-03-29T07:05:37;13.60;58.40
27492;DHT22;14927;51.210;6.838;2024-03-29T07:08:22;13.60;58.50
27492;DHT22;14927;51.210;6.838;2024-03-29T07:11:07;13.60;58.70
27492;DHT22;14927;51.210;6.838;2024-03-29T07:13:51;13.60;58.80
27492;DHT22;14927;51.210;6.838;2024-03-29T07:16:36;13.60;58.80
27492;DHT22;14927;51.210;6.838;2024-03-29T07:19:21;13.70;59.00
27492;DHT22;14927;51.210;6.838;2024-03-29T07:22:06;13.60;59.00
27492;DHT22;14927;51.210;6.838;2024-03-29T07:24:50;13.60;59.10
27492;DHT22;14927;51.210;6.838;2024-03-29T07:27:35;13.70;59.40
27492;DHT22;14927;51.210;6.838;2024-03-29T07:30:19;13.80;59.60
27492;DHT22;14927;51.210;6.838;2024-03-29T07:33:04;13.70;59.70
27492;DHT22;14927;51.210;6.838;2024-03-29T07:35:49;13.80;59.80
27492;DHT22;14927;51.210;6.838;2024-03-29T07:38:33;13.70;59.80
27492;DHT22;14927;51.210;6.838;2024-03-29T07:41:18;13.80;59.90
27492;DHT22;14927;51.210;6.838;2024-03-29T07:44:03;13.80;60.10
27492;DHT22;14927;51.210;6.838;2024-03-29T07:46:48;13.80;60.20
27492;DHT22;14927;51.210;6.838;2024-03-29T07:49:32;13.90;60.30
27492;DHT22;14927;51.210;6.838;2024-03-29T07:52:17;13.90;60.30
27492;DHT22;14927;51.210;6.838;2024-03-29T07:55:03;13.90;60.30
27492;DHT22;14927;51.210;6.838;2024-03-29T07:57:48;14.00;60.30
27492;DHT22;14927;51.210;6.838;2024-03-29T08:00:33;14.00;60.20
27492;DHT22;14927;51.210;6.838;2024-03-29T08:03:17;14.00;60.30
27492;DHT22;14927;51.210;6.838;2024-03-29T08:06:03;14.00;60.30
27492;DHT22;14927;51.210;6.838;2024-03-29T08:08:50;14.10;60.50
27492;DHT22;14927;51.210;6.838;2024-03-29T08:11:35;14.20;60.60
27492;DHT22;14927;51.210;6.838;2024-03-29T08:14:20;14.20;60.60
27492;DHT22;14927;51.210;6.838;2024-03-29T08:17:04;14.20;60.60
27492;DHT22;14927;51.210;6.838;2024-03-29T08:19:53;14.20;60.80
27492;DHT22;14927;51.210;6.838;2024-03-29T08:22:38;14.30;60.90
27492;DHT22;14927;51.210;6.838;2024-03-29T08:25:22;14.30;61.00
27492;DHT22;14927;51.210;6.838;2024-03-29T08:28:07;14.60;61.20
27492;DHT22;14927;51.210;6.838;2024-03-29T08:30:59;14.40;61.10
27492;DHT22;14927;51.210;6.838;2024-03-29T08:33:45;14.50;61.40
27492;DHT22;14927;51.210;6.838;2024-03-29T08:36:29;14.50;61.10
27492;DHT22;14927;51.210;6.838;2024-03-29T08:39:14;14.60;61.30
27492;DHT22;14927;51.210;6.838;2024-03-29T08:41:59;14.60;61.30
27492;DHT22;14927;51.210;6.838;2024-03-29T08:44:43;14.60;61.20
27492;DHT22;14927;51.210;6.838;2024-03-29T08:47:28;14.70;61.10
27492;DHT22;14927;51.210;6.838;2024-03-29T08:50:13;14.70;61.10
27492;DHT22;14927;51.210;6.838;2024-03-29T08:52:58;14.80;61.20
27492;DHT22;14927;51.210;6.838;2024-03-29T08:55:42;14.80;61.40
27492;DHT22;14927;51.210;6.838;2024-03-29T08:58:27;14.80;61.40
27492;DHT22;14927;51.210;6.838;2024-03-29T09:01:12;14.90;61.50
27492;DHT22;14927;51.210;6.838;2024-03-29T09:03:58;15.00;61.60
27492;DHT22;14927;51.210;6.838;2024-03-29T09:06:43;14.90;61.40
27492;DHT22;14927;51.210;6.838;2024-03-29T09:09:28;15.00;61.60
27492;DHT22;14927;51.210;6.838;2024-03-29T09:12:13;15.10;61.60
27492;DHT22;14927;51.210;6.838;2024-03-29T09:14:57;15.10;61.50
27492;DHT22;14927;51.210;6.838;2024-03-29T09:17:48;15.10;61.60
27492;DHT22;14927;51.210;6.838;2024-03-29T09:20:33;15.20;62.10
27492;DHT22;14927;51.210;6.838;2024-03-29T09:23:17;15.20;61.80
27492;DHT22;14927;51.210;6.838;2024-03-29T09:26:04;15.30;61.90
27492;DHT22;14927;51.210;6.838;2024-03-29T09:28:49;15.30;61.90
27492;DHT22;14927;51.210;6.838;2024-03-29T09:31:34;15.40;62.00
27492;DHT22;14927;51.210;6.838;2024-03-29T09:34:19;15.50;61.90
27492;DHT22;14927;51.210;6.838;2024-03-29T09:37:03;15.40;61.50
27492;DHT22;14927;51.210;6.838;2024-03-29T09:39:48;15.60;61.40
27492;DHT22;14927;51.210;6.838;2024-03-29T09:42:33;15.70;61.20
27492;DHT22;14927;51.210;6.838;2024-03-29T09:45:19;15.80;61.80
27492;DHT22;14927;51.210;6.838;2024-03-29T09:48:07;15.80;60.70
27492;DHT22;14927;51.210;6.838;2024-03-29T09:50:54;15.90;60.50
27492;DHT22;14927;51.210;6.838;2024-03-29T09:53:42;15.90;60.20
27492;DHT22;14927;51.210;6.838;2024-03-29T09:56:27;16.00;60.10
27492;DHT22;14927;51.210;6.838;2024-03-29T09:59:12;16.00;59.90
27492;DHT22;14927;51.210;6.838;2024-03-29T10:01:58;16.10;59.70
27492;DHT22;14927;51.210;6.838;2024-03-29T10:04:45;16.20;59.60
27492;DHT22;14927;51.210;6.838;2024-03-29T10:07:33;16.20;59.60
27492;DHT22;14927;51.210;6.838;2024-03-29T10:10:20;16.20;59.50
27492;DHT22;14927;51.210;6.838;2024-03-29T10:13:05;16.30;59.80
27492;DHT22;14927;51.210;6.838;2024-03-29T10:15:50;16.30;59.40
27492;DHT22;14927;51.210;6.838;2024-03-29T10:18:37;16.40;59.40
27492;DHT22;14927;51.210;6.838;2024-03-29T10:21:25;16.40;59.30
27492;DHT22;14927;51.210;6.838;2024-03-29T10:24:13;16.40;59.10
27492;DHT22;14927;51.210;6.838;2024-03-29T10:26:58;16.50;59.10
27492;DHT22;14927;51.210;6.838;2024-03-29T10:29:43;16.50;59.00
27492;DHT22;14927;51.210;6.838;2024-03-29T10:32:27;16.60;58.70
27492;DHT22;14927;51.210;6.838;2024-03-29T10:35:12;16.60;58.40
27492;DHT22;14927;51.210;6.838;2024-03-29T10:37:57;16.70;58.20
27492;DHT22;14927;51.210;6.838;2024-03-29T10:40:41;16.70;58.00
27492;DHT22;14927;51.210;6.838;2024-03-29T10:43:26;16.80;58.10
27492;DHT22;14927;51.210;6.838;2024-03-29T10:46:11;16.80;57.80
27492;DHT22;14927;51.210;6.838;2024-03-29T10:48:57;16.90;57.50
27492;DHT22;14927;51.210;6.838;2024-03-29T10:51:42;16.90;57.30
27492;DHT22;14927;51.210;6.838;2024-03-29T10:54:27;17.00;57.00
27492;DHT22;14927;51.210;6.838;2024-03-29T10:57:23;16.90;56.60
27492;DHT22;14927;51.210;6.838;2024-03-29T11:00:11;17.20;56.20
27492;DHT22;14927;51.210;6.838;2024-03-29T11:03:24;17.20;56.10
27492;DHT22;14927;51.210;6.838;2024-03-29T11:06:15;17.30;55.70
27492;DHT22;14927;51.210;6.838;2024-03-29T11:09:00;17.40;55.50
27492;DHT22;14927;51.210;6.838;2024-03-29T11:11:50;17.50;55.20
27492;DHT22;14927;51.210;6.838;2024-03-29T11:14:46;17.60;55.00
27492;DHT22;14927;51.210;6.838;2024-03-29T11:17:49;17.70;54.90
27492;DHT22;14927;51.210;6.838;2024-03-29T11:20:34;17.70;54.90
27492;DHT22;14927;51.210;6.838;2024-03-29T11:23:22;17.90;54.70
27492;DHT22;14927;51.210;6.838;2024-03-29T11:26:07;17.90;54.30
27492;DHT22;14927;51.210;6.838;2024-03-29T11:28:53;18.00;54.10
27492;DHT22;14927;51.210;6.838;2024-03-29T11:31:38;18.10;53.30
27492;DHT22;14927;51.210;6.838;2024-03-29T11:34:23;18.10;52.60
27492;DHT22;14927;51.210;6.838;2024-03-29T11:37:12;18.20;52.40
27492;DHT22;14927;51.210;6.838;2024-03-29T11:40:01;18.30;51.80
27492;DHT22;14927;51.210;6.838;2024-03-29T11:42:47;18.30;51.50
27492;DHT22;14927;51.210;6.838;2024-03-29T11:45:32;18.30;50.80
27492;DHT22;14927;51.210;6.838;2024-03-29T11:48:23;18.50;50.70
27492;DHT22;14927;51.210;6.838;2024-03-29T11:51:11;18.60;50.30
27492;DHT22;14927;51.210;6.838;2024-03-29T11:54:00;18.60;50.10
27492;DHT22;14927;51.210;6.838;2024-03-29T11:56:47;18.70;50.20
27492;DHT22;14927;51.210;6.838;2024-03-29T11:59:32;18.70;50.00
27492;DHT22;14927;51.210;6.838;2024-03-29T12:02:17;18.80;49.80
27492;DHT22;14927;51.210;6.838;2024-03-29T12:05:06;18.80;49.80
27492;DHT22;14927;51.210;6.838;2024-03-29T12:07:52;18.90;49.20
27492;DHT22;14927;51.210;6.838;2024-03-29T12:10:37;18.90;49.50
27492;DHT22;14927;51.210;6.838;2024-03-29T12:13:21;18.90;49.50
27492;DHT22;14927;51.210;6.838;2024-03-29T12:16:07;19.00;49.50
27492;DHT22;14927;51.210;6.838;2024-03-29T12:18:51;19.00;49.40
27492;DHT22;14927;51.210;6.838;2024-03-29T12:21:36;19.00;49.40
27492;DHT22;14927;51.210;6.838;2024-03-29T12:24:29;19.00;49.30
27492;DHT22;14927;51.210;6.838;2024-03-29T12:27:17;19.00;49.20
27492;DHT22;14927;51.210;6.838;2024-03-29T12:30:11;19.10;49.10
27492;DHT22;14927;51.210;6.838;2024-03-29T12:33:08;19.00;48.70
27492;DHT22;14927;51.210;6.838;2024-03-29T12:35:55;19.10;49.30
27492;DHT22;14927;51.210;6.838;2024-03-29T12:38:42;19.10;49.00
27492;DHT22;14927;51.210;6.838;2024-03-29T12:41:32;19.10;48.50
27492;DHT22;14927;51.210;6.838;2024-03-29T12:44:16;19.10;48.10
27492;DHT22;14927;51.210;6.838;2024-03-29T12:47:02;19.10;48.20
27492;DHT22;14927;51.210;6.838;2024-03-29T12:49:48;19.00;48.00
27492;DHT22;14927;51.210;6.838;2024-03-29T12:52:42;19.00;48.10
27492;DHT22;14927;51.210;6.838;2024-03-29T12:55:28;19.00;47.90
27492;DHT22;14927;51.210;6.838;2024-03-29T12:58:19;18.90;48.00
27492;DHT22;14927;51.210;6.838;2024-03-29T13:01:06;18.90;48.10
27492;DHT22;14927;51.210;6.838;2024-03-29T13:03:51;19.00;48.00
27492;DHT22;14927;51.210;6.838;2024-03-29T13:06:35;19.00;48.10
27492;DHT22;14927;51.210;6.838;2024-03-29T13:09:20;18.90;48.00
27492;DHT22;14927;51.210;6.838;2024-03-29T13:12:08;19.00;47.70
27492;DHT22;14927;51.210;6.838;2024-03-29T13:14:53;18.80;47.40
27492;DHT22;14927;51.210;6.838;2024-03-29T13:17:40;19.00;47.60
27492;DHT22;14927;51.210;6.838;2024-03-29T13:20:24;19.20;47.60
27492;DHT22;14927;51.210;6.838;2024-03-29T13:23:09;19.00;47.30
27492;DHT22;14927;51.210;6.838;2024-03-29T13:25:54;18.90;47.20
27492;DHT22;14927;51.210;6.838;2024-03-29T13:28:40;19.10;47.20
27492;DHT22;14927;51.210;6.838;2024-03-29T13:31:25;19.10;47.30
27492;DHT22;14927;51.210;6.838;2024-03-29T13:34:12;19.20;47.90
27492;DHT22;14927;51.210;6.838;2024-03-29T13:36:57;19.40;48.40
27492;DHT22;14927;51.210;6.838;2024-03-29T13:39:42;19.60;48.50
27492;DHT22;14927;51.210;6.838;2024-03-29T13:42:26;19.90;48.40
27492;DHT22;14927;51.210;6.838;2024-03-29T13:45:13;20.20;48.10
27492;DHT22;14927;51.210;6.838;2024-03-29T13:47:59;20.50;47.20
27492;DHT22;14927;51.210;6.838;2024-03-29T13:50:43;20.80;46.70
27492;DHT22;14927;51.210;6.838;2024-03-29T13:53:28;20.90;46.40
27492;DHT22;14927;51.210;6.838;2024-03-29T13:56:19;21.10;46.10
27492;DHT22;14927;51.210;6.838;2024-03-29T13:59:12;21.40;46.00
27492;DHT22;14927;51.210;6.838;2024-03-29T14:01:56;21.70;46.10
27492;DHT22;14927;51.210;6.838;2024-03-29T14:04:47;22.00;45.00
27492;DHT22;14927;51.210;6.838;2024-03-29T14:07:32;22.20;44.10
27492;DHT22;14927;51.210;6.838;2024-03-29T14:10:17;22.80;43.30
27492;DHT22;14927;51.210;6.838;2024-03-29T14:13:05;23.30;42.00
27492;DHT22;14927;51.210;6.838;2024-03-29T14:15:54;23.70;40.70
27492;DHT22;14927;51.210;6.838;2024-03-29T14:18:39;24.00;39.20
27492;DHT22;14927;51.210;6.838;2024-03-29T14:21:26;24.30;38.50
27492;DHT22;14927;51.210;6.838;2024-03-29T14:24:12;24.40;38.10
27492;DHT22;14927;51.210;6.838;2024-03-29T14:26:57;24.60;37.20
27492;DHT22;14927;51.210;6.838;2024-03-29T14:29:42;24.80;36.50
27492;DHT22;14927;51.210;6.838;2024-03-29T14:32:29;24.90;35.70
27492;DHT22;14927;51.210;6.838;2024-03-29T14:35:17;24.80;35.50
27492;DHT22;14927;51.210;6.838;2024-03-29T14:38:04;24.80;35.40
27492;DHT22;14927;51.210;6.838;2024-03-29T14:40:50;24.90;35.90
27492;DHT22;14927;51.210;6.838;2024-03-29T14:43:34;24.70;35.70
27492;DHT22;14927;51.210;6.838;2024-03-29T14:46:19;24.90;35.50
27492;DHT22;14927;51.210;6.838;2024-03-29T14:49:10;24.90;35.40
27492;DHT22;14927;51.210;6.838;2024-03-29T14:51:56;24.80;35.00
27492;DHT22;14927;51.210;6.838;2024-03-29T14:54:43;24.80;35.20
27492;DHT22;14927;51.210;6.838;2024-03-29T14:57:33;24.90;35.10
27492;DHT22;14927;51.210;6.838;2024-03-29T15:00:19;24.80;35.00
27492;DHT22;14927;51.210;6.838;2024-03-29T15:03:08;24.70;34.90
27492;DHT22;14927;51.210;6.838;2024-03-29T15:05:59;24.60;35.10
27492;DHT22;14927;51.210;6.838;2024-03-29T15:09:23;24.50;35.30
27492;DHT22;14927;51.210;6.838;2024-03-29T15:12:30;24.40;36.00
27492;DHT22;14927;51.210;6.838;2024-03-29T15:16:11;24.10;36.40
27492;DHT22;14927;51.210;6.838;2024-03-29T15:19:31;23.90;37.00
27492;DHT22;14927;51.210;6.838;2024-03-29T15:23:15;23.70;37.40
27492;DHT22;14927;51.210;6.838;2024-03-29T15:33:40;23.10;37.60
27492;DHT22;14927;51.210;6.838;2024-03-29T15:36:42;22.90;38.00
27492;DHT22;14927;51.210;6.838;2024-03-29T15:39:35;22.50;38.30
27492;DHT22;14927;51.210;6.838;2024-03-29T15:42:21;22.60;38.80
27492;DHT22;14927;51.210;6.838;2024-03-29T15:45:10;22.40;39.00
27492;DHT22;14927;51.210;6.838;2024-03-29T15:47:58;22.10;39.10
27492;DHT22;14927;51.210;6.838;2024-03-29T15:50:42;22.10;39.50
27492;DHT22;14927;51.210;6.838;2024-03-29T15:53:29;22.00;40.40
27492;DHT22;14927;51.210;6.838;2024-03-29T15:56:13;21.90;40.10
27492;DHT22;14927;51.210;6.838;2024-03-29T15:59:02;21.70;40.30
27492;DHT22;14927;51.210;6.838;2024-03-29T16:01:51;21.60;40.50
27492;DHT22;14927;51.210;6.838;2024-03-29T16:04:44;21.50;40.70
27492;DHT22;14927;51.210;6.838;2024-03-29T16:07:38;21.40;40.90
27492;DHT22;14927;51.210;6.838;2024-03-29T16:13:40;21.20;41.20
27492;DHT22;14927;51.210;6.838;2024-03-29T16:16:27;21.20;41.50
27492;DHT22;14927;51.210;6.838;2024-03-29T16:19:11;21.10;41.80
27492;DHT22;14927;51.210;6.838;2024-03-29T16:22:11;21.00;41.90
27492;DHT22;14927;51.210;6.838;2024-03-29T16:24:58;20.90;42.30
27492;DHT22;14927;51.210;6.838;2024-03-29T16:27:43;20.80;42.30
27492;DHT22;14927;51.210;6.838;2024-03-29T16:30:28;20.70;42.40
27492;DHT22;14927;51.210;6.838;2024-03-29T16:33:12;20.70;42.70
27492;DHT22;14927;51.210;6.838;2024-03-29T16:36:07;20.60;42.80
27492;DHT22;14927;51.210;6.838;2024-03-29T16:39:02;20.30;43.00
27492;DHT22;14927;51.210;6.838;2024-03-29T16:41:48;20.70;43.30
27492;DHT22;14927;51.210;6.838;2024-03-29T16:44:40;20.20;43.40
27492;DHT22;14927;51.210;6.838;2024-03-29T16:50:41;20.30;44.10
27492;DHT22;14927;51.210;6.838;2024-03-29T16:53:28;20.00;44.00
27492;DHT22;14927;51.210;6.838;2024-03-29T16:56:27;20.20;45.00
27492;DHT22;14927;51.210;6.838;2024-03-29T16:59:17;20.10;44.60
27492;DHT22;14927;51.210;6.838;2024-03-29T17:02:10;19.80;44.50
27492;DHT22;14927;51.210;6.838;2024-03-29T17:05:37;20.10;44.90
27492;DHT22;14927;51.210;6.838;2024-03-29T17:08:31;19.90;45.00
27492;DHT22;14927;51.210;6.838;2024-03-29T17:11:21;19.90;45.30
27492;DHT22;14927;51.210;6.838;2024-03-29T17:14:14;19.60;45.30
27492;DHT22;14927;51.210;6.838;2024-03-29T17:17:02;19.70;45.60
27492;DHT22;14927;51.210;6.838;2024-03-29T17:19:50;19.60;45.90
27492;DHT22;14927;51.210;6.838;2024-03-29T17:22:46;19.60;46.00
27492;DHT22;14927;51.210;6.838;2024-03-29T17:25:33;19.70;46.30
27492;DHT22;14927;51.210;6.838;2024-03-29T17:28:37;19.50;46.20
27492;DHT22;14927;51.210;6.838;2024-03-29T17:31:29;19.30;46.10
27492;DHT22;14927;51.210;6.838;2024-03-29T17:34:15;19.50;46.40
27492;DHT22;14927;51.210;6.838;2024-03-29T17:37:27;19.20;46.50
27492;DHT22;14927;51.210;6.838;2024-03-29T17:40:42;19.20;46.80
27492;DHT22;14927;51.210;6.838;2024-03-29T17:43:27;19.20;46.60
27492;DHT22;14927;51.210;6.838;2024-03-29T17:46:28;19.10;46.60
27492;DHT22;14927;51.210;6.838;2024-03-29T17:49:34;19.10;47.00